Time;durP1;ratioP1;P1;durP2;ratioP2;P2;SDS_P1;SDS_P2;PMS_P1;PMS_P2;Temp;Humidity;BMP_temperature;BMP_pressure;BME280_temperature;BME280_humidity;BME280_pressure;Samples;Min_cycle;Max_cycle;Signal;HPM_P1;HPM_P2
2023/08/27 00:01:03;;;;;;;42.92;17.65;;;;;19.20;95963.00;;;;8252332;28;20288;-63
2023/08/27 00:05:12;;;;;;;39.47;15.65;;;;;19.10;95959.00;;;;8249108;28;20676;-63
2023/08/27 00:09:16;;;;;;;37.83;16.67;;;;;19.10;95957.00;;;;8255175;28;20743;-63
2023/08/27 00:13:19;;;;;;;35.63;15.65;;;;;19.10;95946.00;;;;8252742;28;20318;-63
2023/08/27 00:17:25;;;;;;;34.00;14.98;;;;;19.10;95945.00;;;;8251964;28;20207;-64
2023/08/27 00:21:29;;;;;;;36.10;15.07;;;;;19.10;95927.00;;;;8256128;28;20238;-63
2023/08/27 00:25:38;;;;;;;36.05;14.65;;;;;19.10;95923.00;;;;8245898;28;20343;-63
2023/08/27 00:29:43;;;;;;;34.60;14.38;;;;;19.10;95919.00;;;;8255328;28;20564;-63
2023/08/27 00:33:46;;;;;;;39.20;14.73;;;;;19.10;95906.00;;;;8252219;28;20261;-63
2023/08/27 00:37:52;;;;;;;36.30;14.60;;;;;19.20;95890.00;;;;8252870;28;20926;-63
2023/08/27 00:41:55;;;;;;;42.58;15.77;;;;;19.20;95903.00;;;;8254898;28;20652;-63
2023/08/27 00:46:06;;;;;;;39.60;15.32;;;;;19.20;95891.00;;;;8243747;28;20213;-62
2023/08/27 00:50:11;;;;;;;39.50;15.13;;;;;19.20;95892.00;;;;8254201;28;20735;-62
2023/08/27 00:54:23;;;;;;;40.65;14.93;;;;;19.20;95877.00;;;;8245323;28;20227;-62
2023/08/27 00:58:27;;;;;;;39.00;15.80;;;;;19.20;95876.00;;;;8249420;28;20674;-63
2023/08/27 01:02:31;;;;;;;47.15;16.58;;;;;19.20;95880.00;;;;8247726;28;20245;-63
2023/08/27 01:06:34;;;;;;;61.22;19.45;;;;;19.10;95868.00;;;;8249231;28;20199;-62
2023/08/27 01:10:46;;;;;;;51.85;18.63;;;;;19.10;95857.00;;;;8247088;28;20207;-63
2023/08/27 01:14:52;;;;;;;69.47;21.08;;;;;19.10;95867.00;;;;8243580;28;20860;-62
2023/08/27 01:19:10;;;;;;;76.93;22.10;;;;;19.00;95832.00;;;;8247420;28;20206;-63
2023/08/27 01:23:14;;;;;;;73.95;21.88;;;;;19.00;95837.00;;;;8245726;28;20237;-63
2023/08/27 01:27:28;;;;;;;60.67;20.20;;;;;19.00;95828.00;;;;8248407;28;20207;-62
2023/08/27 01:31:38;;;;;;;73.18;21.08;;;;;19.00;95833.00;;;;8250138;28;20203;-62
2023/08/27 01:35:42;;;;;;;64.80;20.35;;;;;19.00;95833.00;;;;8234691;28;20226;-63
2023/08/27 01:40:00;;;;;;;67.55;20.35;;;;;19.00;95823.00;;;;8238803;28;20213;-63
2023/08/27 01:44:06;;;;;;;62.58;20.90;;;;;19.00;95823.00;;;;8242402;28;20199;-62
2023/08/27 01:48:09;;;;;;;68.05;21.00;;;;;19.10;95811.00;;;;8246451;28;20298;-63
2023/08/27 01:52:15;;;;;;;65.57;20.70;;;;;19.00;95800.00;;;;8249143;28;20631;-62
2023/08/27 01:56:21;;;;;;;63.35;19.88;;;;;19.00;95795.00;;;;8249911;28;20679;-62
2023/08/27 02:00:24;;;;;;;49.40;18.15;;;;;19.00;95808.00;;;;8245737;28;20248;-62
2023/08/27 02:04:33;;;;;;;54.03;18.13;;;;;18.90;95806.00;;;;8243643;28;20241;-63
2023/08/27 02:08:36;;;;;;;57.58;18.98;;;;;18.90;95796.00;;;;8241249;28;20200;-63
2023/08/27 02:12:48;;;;;;;52.58;18.75;;;;;18.90;95787.00;;;;8408775;27;20581;-61
2023/08/27 02:16:54;;;;;;;48.10;17.70;;;;;18.90;95781.00;;;;8376592;28;20224;-61
2023/08/27 02:21:00;;;;;;;50.72;17.80;;;;;18.90;95787.00;;;;8387282;28;20839;-61
2023/08/27 02:25:05;;;;;;;46.70;16.40;;;;;18.90;95780.00;;;;8380266;28;20204;-61
2023/08/27 02:29:12;;;;;;;39.92;15.07;;;;;18.90;95795.00;;;;8388665;28;20758;-61
2023/08/27 02:33:17;;;;;;;39.22;15.55;;;;;18.90;95787.00;;;;8385157;28;20200;-61
2023/08/27 02:37:23;;;;;;;40.72;16.15;;;;;19.00;95804.00;;;;8376846;28;20204;-61
2023/08/27 02:41:30;;;;;;;38.78;14.90;;;;;19.00;95808.00;;;;8373869;28;20676;-61
2023/08/27 02:45:34;;;;;;;38.33;16.10;;;;;19.00;95809.00;;;;8368545;28;20196;-61
2023/08/27 02:49:39;;;;;;;29.25;14.20;;;;;19.00;95786.00;;;;8374166;28;20319;-63
2023/08/27 02:53:42;;;;;;;29.73;12.75;;;;;19.00;95792.00;;;;8371332;28;20568;-63
2023/08/27 02:57:45;;;;;;;29.23;12.57;;;;;19.00;95798.00;;;;8370574;28;20288;-63
2023/08/27 03:01:53;;;;;;;25.92;12.85;;;;;19.00;95793.00;;;;8408701;22;20218;-61
2023/08/27 03:05:56;;;;;;;31.63;13.20;;;;;19.00;95810.00;;;;8271180;28;20238;-61
2023/08/27 03:09:59;;;;;;;34.97;14.13;;;;;18.90;95783.00;;;;8272331;28;20316;-61
2023/08/27 03:14:05;;;;;;;37.38;14.20;;;;;18.80;95796.00;;;;8272090;28;20195;-61
2023/08/27 03:18:11;;;;;;;33.38;14.63;;;;;18.80;95810.00;;;;8277118;28;20208;-61
2023/08/27 03:22:14;;;;;;;34.13;13.95;;;;;18.70;95789.00;;;;8266569;28;20265;-61
2023/08/27 03:26:17;;;;;;;40.67;14.75;;;;;18.70;95781.00;;;;8251195;28;20213;-61
2023/08/27 03:30:20;;;;;;;35.00;13.80;;;;;18.60;95766.00;;;;8251941;28;20627;-66
2023/08/27 03:34:26;;;;;;;27.75;12.52;;;;;18.50;95778.00;;;;8254355;28;20246;-63
2023/08/27 03:38:29;;;;;;;36.47;15.50;;;;;18.50;95773.00;;;;8253903;28;20290;-63
2023/08/27 03:42:32;;;;;;;37.53;15.20;;;;;18.50;95780.00;;;;8251276;28;20914;-64
2023/08/27 03:46:43;;;;;;;30.15;12.75;;;;;18.50;95789.00;;;;8252577;28;20613;-64
2023/08/27 03:50:47;;;;;;;35.50;14.73;;;;;18.50;95782.00;;;;8245928;28;20219;-64
2023/08/27 03:54:51;;;;;;;39.05;13.93;;;;;18.50;95791.00;;;;8248378;28;20290;-65
2023/08/27 03:58:55;;;;;;;34.00;12.90;;;;;18.50;95794.00;;;;8249646;28;20231;-66
2023/08/27 04:02:58;;;;;;;36.40;13.25;;;;;18.50;95796.00;;;;8249883;28;20629;-65
2023/08/27 04:07:13;;;;;;;31.73;13.20;;;;;18.40;95796.00;;;;8257893;28;20224;-66
2023/08/27 04:11:17;;;;;;;37.45;14.15;;;;;18.40;95802.00;;;;8265257;28;20265;-64
2023/08/27 04:15:26;;;;;;;46.95;14.82;;;;;18.40;95807.00;;;;8261320;28;20715;-64
2023/08/27 04:19:30;;;;;;;41.35;13.95;;;;;18.40;95812.00;;;;8262453;28;20226;-65
2023/08/27 04:23:37;;;;;;;45.70;14.73;;;;;18.40;95815.00;;;;8263192;28;20206;-64
2023/08/27 04:27:43;;;;;;;41.92;14.25;;;;;18.30;95833.00;;;;8269296;28;20214;-65
2023/08/27 04:31:47;;;;;;;47.42;14.07;;;;;18.40;95828.00;;;;8267735;28;20226;-65
2023/08/27 04:35:52;;;;;;;54.75;15.93;;;;;18.40;95834.00;;;;8264060;28;20281;-65
2023/08/27 04:39:57;;;;;;;40.15;13.63;;;;;18.40;95818.00;;;;8270473;28;20245;-65
2023/08/27 04:44:00;;;;;;;46.00;13.65;;;;;18.40;95814.00;;;;8264455;28;20202;-64
2023/08/27 04:48:04;;;;;;;44.45;13.98;;;;;18.40;95813.00;;;;8259914;28;20230;-64
2023/08/27 04:52:07;;;;;;;37.55;12.93;;;;;18.40;95813.00;;;;8271405;28;20581;-64
2023/08/27 04:56:31;;;;;;;50.05;14.05;;;;;18.40;95803.00;;;;8248995;28;20626;-65
2023/08/27 05:00:35;;;;;;;46.10;15.10;;;;;18.40;95801.00;;;;8253409;28;20205;-65
2023/08/27 05:04:38;;;;;;;38.10;13.88;;;;;18.40;95810.00;;;;8249547;28;20689;-64
2023/08/27 05:08:42;;;;;;;36.25;12.63;;;;;18.50;95808.00;;;;8257398;28;20232;-64
2023/08/27 05:12:48;;;;;;;58.83;15.82;;;;;18.50;95814.00;;;;8254487;28;20268;-65
2023/08/27 05:16:57;;;;;;;45.83;13.13;;;;;18.50;95821.00;;;;8261987;28;20194;-64
2023/08/27 05:21:03;;;;;;;32.75;11.23;;;;;18.50;95815.00;;;;8260928;28;20206;-64
2023/08/27 05:25:08;;;;;;;39.17;12.45;;;;;18.60;95817.00;;;;8254931;28;20203;-66
2023/08/27 05:29:14;;;;;;;37.65;12.10;;;;;18.70;95819.00;;;;8266236;28;20276;-65
2023/08/27 05:33:17;;;;;;;35.75;12.27;;;;;18.70;95812.00;;;;8264459;28;20237;-65
2023/08/27 05:37:29;;;;;;;37.80;12.35;;;;;18.70;95813.00;;;;8266666;28;20678;-65
2023/08/27 05:41:34;;;;;;;34.13;10.80;;;;;18.80;95815.00;;;;8255766;28;20211;-65
2023/08/27 05:45:39;;;;;;;31.23;11.98;;;;;18.80;95812.00;;;;8249414;28;20226;-66
2023/08/27 05:49:43;;;;;;;39.65;12.70;;;;;18.80;95804.00;;;;8263173;28;20209;-66
2023/08/27 05:53:46;;;;;;;29.38;10.25;;;;;18.80;95814.00;;;;8248452;28;20238;-65
2023/08/27 05:57:52;;;;;;;32.97;10.85;;;;;18.70;95817.00;;;;8245764;28;20210;-65
2023/08/27 06:01:59;;;;;;;26.95;9.60;;;;;18.60;95822.00;;;;8241653;28;20210;-64
2023/08/27 06:06:04;;;;;;;33.47;11.18;;;;;18.60;95824.00;;;;8244276;28;20653;-65
2023/08/27 06:10:08;;;;;;;31.20;10.93;;;;;18.60;95830.00;;;;8249447;28;20595;-64
2023/08/27 06:14:15;;;;;;;34.45;10.45;;;;;18.70;95839.00;;;;8247780;28;20202;-64
2023/08/27 06:18:20;;;;;;;30.42;10.13;;;;;18.80;95838.00;;;;8247435;28;20195;-64
2023/08/27 06:22:23;;;;;;;24.27;8.45;;;;;18.70;95829.00;;;;8247140;28;20199;-63
2023/08/27 06:26:27;;;;;;;21.95;8.55;;;;;18.70;95826.00;;;;8243278;28;20560;-64
2023/08/27 06:30:31;;;;;;;27.33;8.50;;;;;18.70;95837.00;;;;8243721;28;20213;-65
2023/08/27 06:34:38;;;;;;;17.92;7.13;;;;;18.70;95828.00;;;;8238332;28;20203;-63
2023/08/27 06:38:42;;;;;;;22.00;8.32;;;;;18.70;95838.00;;;;8246417;28;20218;-63
2023/08/27 06:42:46;;;;;;;19.42;7.70;;;;;18.70;95833.00;;;;8260207;28;20199;-64
2023/08/27 06:46:49;;;;;;;23.00;8.13;;;;;18.80;95827.00;;;;8257626;28;20293;-64
2023/08/27 06:50:56;;;;;;;20.20;7.90;;;;;18.80;95837.00;;;;8245496;28;20715;-65
2023/08/27 06:55:00;;;;;;;17.42;7.45;;;;;18.80;95829.00;;;;8245568;28;20552;-65
2023/08/27 06:59:06;;;;;;;13.40;6.00;;;;;18.80;95831.00;;;;8253749;28;20237;-64
2023/08/27 07:03:12;;;;;;;22.90;8.32;;;;;18.90;95826.00;;;;8256652;28;20318;-64
2023/08/27 07:07:17;;;;;;;26.30;8.35;;;;;18.90;95834.00;;;;8266133;28;20640;-64
2023/08/27 07:11:26;;;;;;;17.08;7.03;;;;;19.00;95834.00;;;;8268869;28;20703;-64
2023/08/27 07:15:33;;;;;;;22.05;7.50;;;;;19.00;95838.00;;;;8256374;28;20700;-64
2023/08/27 07:19:36;;;;;;;16.45;6.78;;;;;19.00;95829.00;;;;8248819;28;20728;-64
2023/08/27 07:23:44;;;;;;;13.50;7.10;;;;;19.10;95831.00;;;;8252525;28;20352;-64
2023/08/27 07:27:50;;;;;;;12.98;5.85;;;;;19.10;95827.00;;;;8260986;28;20203;-64
2023/08/27 07:31:54;;;;;;;11.00;5.50;;;;;19.00;95835.00;;;;8247006;28;20241;-63
2023/08/27 07:36:04;;;;;;;7.68;4.95;;;;;19.10;95829.00;;;;8252493;28;20233;-64
2023/08/27 07:40:10;;;;;;;12.80;5.88;;;;;19.20;95818.00;;;;8248817;28;20207;-64
2023/08/27 07:44:14;;;;;;;13.63;5.60;;;;;19.30;95825.00;;;;8254939;28;20218;-64
2023/08/27 07:48:18;;;;;;;10.30;5.60;;;;;19.30;95818.00;;;;8251549;28;20203;-64
2023/08/27 07:52:21;;;;;;;6.95;4.72;;;;;19.40;95819.00;;;;8244977;28;20286;-65
2023/08/27 07:56:26;;;;;;;9.13;5.40;;;;;19.40;95824.00;;;;8250465;28;20341;-65
2023/08/27 08:00:30;;;;;;;13.43;4.70;;;;;19.30;95822.00;;;;8249812;28;20245;-65
2023/08/27 08:04:34;;;;;;;8.30;4.38;;;;;19.30;95815.00;;;;8255186;28;21044;-64
2023/08/27 08:08:37;;;;;;;9.05;4.38;;;;;19.30;95799.00;;;;8261161;28;20203;-65
2023/08/27 08:12:41;;;;;;;8.10;4.40;;;;;19.30;95798.00;;;;8248149;28;20238;-65
2023/08/27 08:16:49;;;;;;;11.45;5.05;;;;;19.30;95807.00;;;;8247242;28;20206;-65
2023/08/27 08:20:56;;;;;;;7.70;4.82;;;;;19.30;95812.00;;;;8251311;28;20230;-64
2023/08/27 08:24:59;;;;;;;7.55;4.90;;;;;19.40;95787.00;;;;8244825;28;20203;-64
2023/08/27 08:29:04;;;;;;;8.13;5.40;;;;;19.50;95803.00;;;;8255712;28;20285;-64
2023/08/27 08:33:07;;;;;;;10.80;5.28;;;;;19.50;95792.00;;;;8253359;28;20321;-64
2023/08/27 08:37:10;;;;;;;10.65;5.82;;;;;19.50;95795.00;;;;8256996;28;20214;-64
2023/08/27 08:41:18;;;;;;;10.35;5.40;;;;;19.70;95791.00;;;;8252074;28;20298;-64
2023/08/27 08:45:28;;;;;;;7.55;4.80;;;;;19.80;95794.00;;;;8247527;28;20194;-64
2023/08/27 08:49:33;;;;;;;4.72;3.92;;;;;19.80;95785.00;;;;8247571;28;20294;-62
2023/08/27 08:53:40;;;;;;;13.35;4.45;;;;;19.70;95798.00;;;;8254709;28;20313;-62
2023/08/27 08:57:50;;;;;;;6.25;4.40;;;;;19.80;95799.00;;;;8264784;28;20610;-62
2023/08/27 09:01:57;;;;;;;7.70;4.85;;;;;19.80;95797.00;;;;8259395;28;20203;-62
2023/08/27 09:06:01;;;;;;;6.18;4.38;;;;;20.00;95807.00;;;;8259535;28;20215;-63
2023/08/27 09:10:05;;;;;;;7.38;3.80;;;;;20.10;95828.00;;;;8251211;28;20209;-62
2023/08/27 09:14:11;;;;;;;7.18;4.50;;;;;19.90;95820.00;;;;8248306;28;20321;-62
2023/08/27 09:18:16;;;;;;;5.70;4.25;;;;;19.90;95829.00;;;;8249992;28;20218;-62
2023/08/27 09:22:20;;;;;;;7.88;4.50;;;;;19.80;95828.00;;;;8247446;28;20199;-62
2023/08/27 09:26:25;;;;;;;11.07;4.20;;;;;19.80;95841.00;;;;8245778;28;20200;-62
2023/08/27 09:30:28;;;;;;;6.88;4.28;;;;;19.90;95843.00;;;;8238046;28;20229;-62
2023/08/27 09:34:38;;;;;;;4.72;4.05;;;;;19.90;95851.00;;;;8245957;28;20237;-61
2023/08/27 09:38:45;;;;;;;5.18;3.80;;;;;19.80;95852.00;;;;8231676;28;20908;-62
2023/08/27 09:43:05;;;;;;;6.35;4.07;;;;;19.70;95867.00;;;;8250796;28;20230;-61
2023/08/27 09:47:09;;;;;;;5.40;4.13;;;;;19.80;95864.00;;;;8244410;28;20210;-61
2023/08/27 09:51:18;;;;;;;4.55;3.88;;;;;19.80;95860.00;;;;8244655;28;20198;-61
2023/08/27 09:55:22;;;;;;;6.20;3.95;;;;;19.80;95846.00;;;;8248136;28;20233;-62
2023/08/27 09:59:28;;;;;;;4.32;3.67;;;;;19.90;95848.00;;;;8243750;28;20206;-61
2023/08/27 10:03:31;;;;;;;5.10;3.80;;;;;19.90;95841.00;;;;8247214;28;20241;-66
2023/08/27 10:07:36;;;;;;;4.82;3.75;;;;;19.90;95832.00;;;;8246336;28;20206;-66
2023/08/27 10:11:44;;;;;;;5.07;3.60;;;;;19.90;95823.00;;;;8240507;28;20206;-66
2023/08/27 10:15:48;;;;;;;5.63;3.65;;;;;20.00;95816.00;;;;8243067;28;20207;-66
2023/08/27 10:19:54;;;;;;;4.18;3.33;;;;;20.10;95817.00;;;;8242874;28;20290;-66
2023/08/27 10:24:02;;;;;;;4.03;3.60;;;;;20.20;95813.00;;;;8242942;28;20230;-65
2023/08/27 10:28:08;;;;;;;7.00;3.53;;;;;20.30;95813.00;;;;8248505;28;20195;-66
2023/08/27 10:32:11;;;;;;;4.38;3.53;;;;;20.40;95811.00;;;;8242392;28;20341;-67
2023/08/27 10:36:21;;;;;;;2.85;2.65;;;;;20.40;95804.00;;;;8248351;28;20203;-65
2023/08/27 10:40:38;;;;;;;4.25;2.70;;;;;20.30;95809.00;;;;8254106;28;20195;-65
2023/08/27 10:45:15;;;;;;;4.28;3.00;;;;;20.40;95802.00;;;;8256148;28;20265;-66
2023/08/27 10:49:20;;;;;;;2.67;2.47;;;;;20.40;95794.00;;;;8247122;28;21001;-65
2023/08/27 10:53:23;;;;;;;3.00;2.80;;;;;20.50;95792.00;;;;8255230;28;20222;-66
2023/08/27 10:57:32;;;;;;;2.83;2.53;;;;;20.60;95780.00;;;;8256325;28;20199;-65
2023/08/27 11:01:39;;;;;;;3.42;2.47;;;;;20.70;95776.00;;;;8251775;28;20839;-65
2023/08/27 11:05:42;;;;;;;2.50;2.30;;;;;20.60;95776.00;;;;8247810;28;20277;-66
2023/08/27 11:09:47;;;;;;;2.80;1.95;;;;;20.50;95782.00;;;;8240375;28;20203;-66
2023/08/27 11:14:04;;;;;;;2.38;2.17;;;;;20.40;95781.00;;;;8243017;28;21682;-65
2023/08/27 11:18:24;;;;;;;2.50;2.30;;;;;20.20;95780.00;;;;8245952;28;20194;-64
2023/08/27 11:22:27;;;;;;;4.07;2.50;;;;;20.20;95788.00;;;;8253979;28;20199;-65
2023/08/27 11:26:33;;;;;;;4.07;2.10;;;;;20.30;95779.00;;;;8245287;28;20583;-66
2023/08/27 11:30:46;;;;;;;2.67;2.47;;;;;20.20;95786.00;;;;8250012;28;20213;-66
2023/08/27 11:34:51;;;;;;;3.25;2.50;;;;;20.30;95791.00;;;;8242517;28;20330;-66
2023/08/27 11:38:59;;;;;;;2.47;2.28;;;;;20.40;95781.00;;;;8244159;28;20233;-66
2023/08/27 11:43:06;;;;;;;2.55;2.10;;;;;20.40;95779.00;;;;8246708;28;20249;-65
2023/08/27 11:47:11;;;;;;;2.67;2.30;;;;;20.40;95775.00;;;;8246040;28;20237;-66
2023/08/27 11:51:15;;;;;;;2.90;2.60;;;;;20.30;95769.00;;;;8243268;28;20313;-66
2023/08/27 11:55:21;;;;;;;2.83;2.50;;;;;20.30;95775.00;;;;8243695;28;20938;-66
2023/08/27 11:59:28;;;;;;;2.38;2.17;;;;;20.40;95780.00;;;;8240417;28;20651;-66
2023/08/27 12:03:37;;;;;;;2.65;2.40;;;;;20.30;95780.00;;;;8245471;28;20226;-66
2023/08/27 12:07:40;;;;;;;2.85;2.40;;;;;20.10;95799.00;;;;8250736;28;20306;-65
2023/08/27 12:11:47;;;;;;;4.97;2.15;;;;;20.10;95808.00;;;;8247568;28;20544;-64
2023/08/27 12:15:53;;;;;;;2.50;2.30;;;;;20.20;95813.00;;;;8244673;28;20234;-66
2023/08/27 12:20:03;;;;;;;2.45;2.35;;;;;20.20;95823.00;;;;8247479;28;20214;-66
2023/08/27 12:24:08;;;;;;;5.10;2.25;;;;;20.00;95839.00;;;;8251711;28;20422;-66
2023/08/27 12:28:13;;;;;;;2.60;2.42;;;;;20.00;95844.00;;;;8250178;28;20213;-65
2023/08/27 12:32:18;;;;;;;2.92;2.30;;;;;20.10;95849.00;;;;8247670;28;20238;-66
2023/08/27 12:36:23;;;;;;;4.65;2.53;;;;;20.00;95849.00;;;;8243807;28;20338;-64
2023/08/27 12:40:27;;;;;;;2.35;2.20;;;;;19.90;95832.00;;;;8250415;28;20641;-63
2023/08/27 12:44:30;;;;;;;3.33;1.90;;;;;19.90;95844.00;;;;8242315;28;20231;-65
2023/08/27 12:48:34;;;;;;;2.08;1.83;;;;;19.70;95845.00;;;;8249605;28;20195;-64
2023/08/27 12:52:39;;;;;;;2.70;2.28;;;;;19.60;95837.00;;;;8255971;28;20328;-65
2023/08/27 12:56:43;;;;;;;6.30;2.53;;;;;19.50;95839.00;;;;8244147;28;20259;-64
2023/08/27 13:00:49;;;;;;;2.30;2.20;;;;;19.30;95842.00;;;;8243877;28;20206;-65
2023/08/27 13:04:54;;;;;;;2.45;2.25;;;;;19.20;95845.00;;;;8246889;28;20227;-65
2023/08/27 13:09:02;;;;;;;4.82;2.30;;;;;19.10;95842.00;;;;8245966;28;20195;-64
2023/08/27 13:13:05;;;;;;;3.75;2.30;;;;;18.90;95840.00;;;;8243957;28;20230;-64
2023/08/27 13:17:10;;;;;;;3.40;2.22;;;;;18.80;95821.00;;;;8246661;28;20202;-65
2023/08/27 13:21:15;;;;;;;2.55;2.35;;;;;18.70;95822.00;;;;8246044;28;20195;-64
2023/08/27 13:25:20;;;;;;;2.85;2.50;;;;;18.70;95831.00;;;;8246066;28;20198;-65
2023/08/27 13:29:23;;;;;;;5.72;2.67;;;;;18.70;95824.00;;;;8251289;28;20627;-64
2023/08/27 13:33:29;;;;;;;4.03;3.00;;;;;18.70;95828.00;;;;8245650;28;20234;-66
2023/08/27 13:37:32;;;;;;;3.38;2.67;;;;;18.80;95835.00;;;;8249466;28;20712;-65
2023/08/27 13:41:37;;;;;;;5.30;3.10;;;;;19.00;95851.00;;;;8247683;28;20301;-64
2023/08/27 13:45:40;;;;;;;3.67;2.92;;;;;19.00;95840.00;;;;8246008;28;20207;-65
2023/08/27 13:49:46;;;;;;;3.00;2.70;;;;;19.00;95838.00;;;;8241114;28;20203;-64
2023/08/27 13:53:49;;;;;;;5.10;3.10;;;;;18.80;95826.00;;;;8243398;28;20219;-64
2023/08/27 13:57:57;;;;;;;3.15;2.63;;;;;18.60;95817.00;;;;8244048;28;20206;-65
2023/08/27 14:02:04;;;;;;;5.03;3.30;;;;;18.50;95821.00;;;;8245495;28;20661;-64
2023/08/27 14:06:07;;;;;;;4.07;2.97;;;;;18.40;95814.00;;;;8240919;28;20297;-66
2023/08/27 14:10:11;;;;;;;4.80;2.75;;;;;18.40;95815.00;;;;8253492;28;20288;-66
2023/08/27 14:14:17;;;;;;;5.22;3.20;;;;;18.40;95809.00;;;;8261586;28;20698;-67
2023/08/27 14:18:20;;;;;;;5.07;2.97;;;;;18.50;95813.00;;;;8245749;28;20238;-66
2023/08/27 14:22:26;;;;;;;3.90;3.20;;;;;18.60;95811.00;;;;8243657;28;20221;-68
2023/08/27 14:26:29;;;;;;;6.20;3.10;;;;;18.60;95808.00;;;;8241940;28;20629;-67
2023/08/27 14:30:33;;;;;;;3.45;3.15;;;;;18.50;95802.00;;;;8242459;28;20199;-65
2023/08/27 14:34:39;;;;;;;3.83;3.15;;;;;18.40;95799.00;;;;8247132;28;20246;-73
2023/08/27 14:38:44;;;;;;;4.45;3.05;;;;;18.50;95804.00;;;;8245896;28;20206;-74
2023/08/27 14:42:49;;;;;;;3.75;2.92;;;;;18.40;95805.00;;;;8244799;28;20294;-74
2023/08/27 14:46:55;;;;;;;3.08;2.80;;;;;18.50;95791.00;;;;8243516;28;20208;-74
2023/08/27 14:51:03;;;;;;;4.35;2.83;;;;;18.40;95790.00;;;;8249865;28;20255;-73
2023/08/27 14:55:06;;;;;;;2.72;2.50;;;;;18.40;95789.00;;;;8242598;28;20322;-73
2023/08/27 14:59:47;;;;;;;3.53;2.92;;;;;18.40;95797.00;;;;8246582;28;20278;-71
2023/08/27 15:03:54;;;;;;;3.60;2.85;;;;;18.50;95795.00;;;;8242522;28;20237;-70
2023/08/27 15:07:58;;;;;;;4.05;2.50;;;;;18.50;95788.00;;;;8264851;28;20198;-71
2023/08/27 15:12:02;;;;;;;6.28;2.28;;;;;18.40;95794.00;;;;8249126;28;20203;-70
2023/08/27 15:16:07;;;;;;;2.70;2.13;;;;;18.40;95793.00;;;;8243305;28;20222;-68
2023/08/27 15:20:15;;;;;;;4.45;2.50;;;;;18.40;95802.00;;;;8248673;28;20290;-68
2023/08/27 15:24:20;;;;;;;2.08;1.90;;;;;18.20;95817.00;;;;8262604;28;20216;-67
2023/08/27 15:28:24;;;;;;;2.55;2.10;;;;;18.10;95822.00;;;;8272250;28;20207;-68
2023/08/27 15:32:28;;;;;;;4.45;2.25;;;;;17.90;95822.00;;;;8253691;28;20676;-70
2023/08/27 15:36:41;;;;;;;1.98;1.88;;;;;17.70;95821.00;;;;8253531;28;20792;-69
2023/08/27 15:40:52;;;;;;;4.93;2.10;;;;;17.60;95812.00;;;;8253418;28;20195;-67
2023/08/27 15:45:00;;;;;;;3.80;1.88;;;;;17.50;95824.00;;;;8250257;28;20292;-67
2023/08/27 15:49:04;;;;;;;1.75;1.65;;;;;17.40;95822.00;;;;8249224;28;20341;-69
2023/08/27 15:53:09;;;;;;;3.40;1.95;;;;;17.40;95815.00;;;;8253008;28;20202;-68
2023/08/27 15:57:12;;;;;;;1.92;1.80;;;;;17.40;95815.00;;;;8255230;28;20718;-69
2023/08/27 16:01:18;;;;;;;6.18;4.10;;;;;17.60;95824.00;;;;8255890;28;20615;-68
2023/08/27 16:05:23;;;;;;;5.43;2.92;;;;;17.70;95822.00;;;;8248723;28;20259;-68
2023/08/27 16:09:27;;;;;;;6.45;3.85;;;;;17.90;95825.00;;;;8250903;28;20294;-67
2023/08/27 16:13:35;;;;;;;6.00;3.22;;;;;18.00;95827.00;;;;8241844;28;20205;-68
2023/08/27 16:17:39;;;;;;;2.20;2.05;;;;;18.10;95827.00;;;;8246026;28;20231;-68
2023/08/27 16:21:42;;;;;;;4.53;2.35;;;;;17.90;95809.00;;;;8245023;28;20187;-66
2023/08/27 16:25:49;;;;;;;3.72;2.20;;;;;17.90;95826.00;;;;8240441;28;20569;-71
2023/08/27 16:29:53;;;;;;;1.98;1.88;;;;;17.80;95819.00;;;;8250799;28;20756;-67
2023/08/27 16:33:56;;;;;;;3.65;2.10;;;;;17.60;95824.00;;;;8253928;28;20285;-67
2023/08/27 16:37:59;;;;;;;3.30;2.33;;;;;17.60;95828.00;;;;8250914;28;20230;-68
2023/08/27 16:42:08;;;;;;;2.90;2.60;;;;;17.60;95842.00;;;;8248299;28;20214;-68
2023/08/27 16:46:13;;;;;;;3.08;2.38;;;;;17.60;95835.00;;;;8250322;28;20213;-68
2023/08/27 16:50:17;;;;;;;2.35;2.15;;;;;17.60;95839.00;;;;8251129;28;20260;-68
2023/08/27 16:54:21;;;;;;;5.45;2.63;;;;;17.60;95837.00;;;;8254257;28;20218;-69
2023/08/27 16:58:25;;;;;;;4.43;2.50;;;;;17.60;95830.00;;;;8248887;28;20322;-68
2023/08/27 17:02:29;;;;;;;3.47;2.05;;;;;17.60;95832.00;;;;8251278;28;20230;-67
2023/08/27 17:06:33;;;;;;;2.80;2.50;;;;;17.60;95835.00;;;;8248782;28;20706;-67
2023/08/27 17:10:40;;;;;;;4.10;2.40;;;;;17.50;95835.00;;;;8246935;28;20245;-69
2023/08/27 17:14:49;;;;;;;2.47;2.10;;;;;17.50;95819.00;;;;8245730;28;20270;-67
2023/08/27 17:18:52;;;;;;;5.03;2.58;;;;;17.50;95820.00;;;;8248503;28;22340;-68
2023/08/27 17:22:55;;;;;;;5.25;2.33;;;;;17.60;95819.00;;;;8244846;28;20278;-66
2023/08/27 17:26:58;;;;;;;4.45;2.72;;;;;17.60;95823.00;;;;8240807;28;20667;-67
2023/08/27 17:31:04;;;;;;;4.00;2.70;;;;;17.60;95821.00;;;;8243439;28;20203;-67
2023/08/27 17:35:10;;;;;;;5.72;2.80;;;;;17.50;95826.00;;;;8243875;28;20234;-67
2023/08/27 17:39:13;;;;;;;5.55;2.70;;;;;17.50;95821.00;;;;8240005;28;20199;-68
2023/08/27 17:43:16;;;;;;;4.10;2.60;;;;;17.50;95821.00;;;;8237586;28;20313;-67
2023/08/27 17:47:21;;;;;;;4.95;3.10;;;;;17.50;95824.00;;;;8243004;28;20209;-67
2023/08/27 17:51:24;;;;;;;3.92;3.10;;;;;17.50;95831.00;;;;8239514;28;20598;-67
2023/08/27 17:55:29;;;;;;;5.22;2.55;;;;;17.50;95838.00;;;;8237159;28;20318;-67
2023/08/27 17:59:34;;;;;;;3.05;2.25;;;;;17.30;95851.00;;;;8243996;28;20267;-67
2023/08/27 18:03:42;;;;;;;4.80;2.80;;;;;17.30;95855.00;;;;8243673;28;20230;-67
2023/08/27 18:07:46;;;;;;;4.65;2.88;;;;;17.20;95866.00;;;;8243496;28;20238;-66
2023/08/27 18:11:51;;;;;;;5.80;2.90;;;;;17.20;95872.00;;;;8244429;28;20203;-66
2023/08/27 18:15:56;;;;;;;7.63;3.00;;;;;17.10;95876.00;;;;8240475;28;20233;-66
2023/08/27 18:20:01;;;;;;;9.30;3.60;;;;;17.10;95888.00;;;;8248245;28;20205;-65
2023/08/27 18:24:06;;;;;;;5.82;3.60;;;;;17.10;95897.00;;;;8236309;28;20234;-65
2023/08/27 18:28:12;;;;;;;6.28;3.35;;;;;17.10;95905.00;;;;8236559;28;20199;-66
2023/08/27 18:32:15;;;;;;;7.30;3.92;;;;;17.10;95910.00;;;;8229272;28;20207;-65
2023/08/27 18:36:20;;;;;;;7.50;3.88;;;;;17.10;95916.00;;;;8235514;28;20230;-65
2023/08/27 18:40:29;;;;;;;9.73;4.32;;;;;17.10;95913.00;;;;8232700;28;20309;-65
2023/08/27 18:44:32;;;;;;;6.63;4.13;;;;;17.10;95918.00;;;;8238554;28;20210;-65
2023/08/27 18:48:36;;;;;;;7.38;4.25;;;;;17.20;95919.00;;;;8230684;28;20217;-65
2023/08/27 18:52:43;;;;;;;8.70;4.20;;;;;17.20;95910.00;;;;8234606;28;20203;-65
2023/08/27 18:56:46;;;;;;;9.02;5.22;;;;;17.20;95915.00;;;;8240774;28;20318;-65
2023/08/27 19:00:49;;;;;;;5.88;4.25;;;;;17.20;95919.00;;;;8239666;28;20217;-65
2023/08/27 19:04:52;;;;;;;9.13;4.57;;;;;17.10;95920.00;;;;8240168;28;20223;-66
2023/08/27 19:08:57;;;;;;;6.28;4.35;;;;;17.10;95926.00;;;;8235446;28;20645;-65
2023/08/27 19:13:00;;;;;;;8.15;4.63;;;;;17.10;95927.00;;;;8240828;28;20217;-65
2023/08/27 19:17:09;;;;;;;6.25;3.97;;;;;17.10;95926.00;;;;8238201;28;20648;-65
2023/08/27 19:21:12;;;;;;;5.75;4.15;;;;;17.10;95923.00;;;;8245023;28;20199;-66
2023/08/27 19:25:17;;;;;;;7.68;4.32;;;;;17.10;95936.00;;;;8240072;28;20206;-66
2023/08/27 19:29:23;;;;;;;9.20;4.85;;;;;17.10;95938.00;;;;8237608;28;20217;-65
2023/08/27 19:33:29;;;;;;;5.60;4.03;;;;;17.20;95953.00;;;;8240293;28;20282;-65
2023/08/27 19:37:33;;;;;;;6.13;3.53;;;;;17.20;95944.00;;;;8238707;28;20226;-65
2023/08/27 19:41:38;;;;;;;3.65;3.03;;;;;17.20;95940.00;;;;8239214;28;20249;-65
2023/08/27 19:45:44;;;;;;;3.25;2.90;;;;;17.10;95949.00;;;;8238787;28;20209;-65
2023/08/27 19:49:47;;;;;;;6.28;2.70;;;;;17.10;95956.00;;;;8234970;28;20839;-65
2023/08/27 19:53:50;;;;;;;2.60;2.40;;;;;17.10;95955.00;;;;8240246;28;20950;-65
2023/08/27 19:57:55;;;;;;;2.63;2.22;;;;;17.10;95958.00;;;;8238620;28;20261;-65
2023/08/27 20:01:58;;;;;;;3.72;2.20;;;;;17.10;95964.00;;;;8233489;28;20639;-65
2023/08/27 20:06:02;;;;;;;2.95;2.30;;;;;17.00;95967.00;;;;8240607;28;20214;-64
2023/08/27 20:10:07;;;;;;;2.10;2.00;;;;;17.00;95973.00;;;;8236177;28;20374;-64
2023/08/27 20:14:13;;;;;;;0.40;0.40;;;;;16.90;95986.00;;;;8244412;28;20227;-65
2023/08/27 20:18:16;;;;;;;0.30;0.30;;;;;16.90;95995.00;;;;8242571;28;20226;-66